sensor_id;sensor_type;location;lat;lon;timestamp;P1;P2;P0
80413;PMS5003;69758;52.580;13.068;2023-08-12T00:01:09;14;12;
80413;PMS5003;69758;52.580;13.068;2023-08-12T00:03:34;13;12;
80413;PMS5003;69758;52.580;13.068;2023-08-12T00:05:59;13;13;
80413;PMS5003;69758;52.580;13.068;2023-08-12T00:08:24;12;12;
80413;PMS5003;69758;52.580;13.068;2023-08-12T00:10:49;15;15;
80413;PMS5003;69758;52.580;13.068;2023-08-12T00:13:14;17;17;
80413;PMS5003;69758;52.580;13.068;2023-08-12T00:15:40;13;13;
80413;PMS5003;69758;52.580;13.068;2023-08-12T00:18:05;12;12;
80413;PMS5003;69758;52.580;13.068;2023-08-12T00:20:30;12;12;
80413;PMS5003;69758;52.580;13.068;2023-08-12T00:22:55;13;13;
80413;PMS5003;69758;52.580;13.068;2023-08-12T00:25:20;12;12;
80413;PMS5003;69758;52.580;13.068;2023-08-12T00:27:45;14;14;
80413;PMS5003;69758;52.580;13.068;2023-08-12T00:30:11;16;14;
80413;PMS5003;69758;52.580;13.068;2023-08-12T00:32:36;12;12;
80413;PMS5003;69758;52.580;13.068;2023-08-12T00:35:01;13;13;
80413;PMS5003;69758;52.580;13.068;2023-08-12T00:37:26;10;10;
80413;PMS5003;69758;52.580;13.068;2023-08-12T00:39:51;12;12;
80413;PMS5003;69758;52.580;13.068;2023-08-12T00:42:17;10;9;
80413;PMS5003;69758;52.580;13.068;2023-08-12T00:44:42;14;12;
80413;PMS5003;69758;52.580;13.068;2023-08-12T00:47:07;13;12;
80413;PMS5003;69758;52.580;13.068;2023-08-12T00:49:33;12;12;
80413;PMS5003;69758;52.580;13.068;2023-08-12T00:51:58;12;11;
80413;PMS5003;69758;52.580;13.068;2023-08-12T00:54:24;11;11;
80413;PMS5003;69758;52.580;13.068;2023-08-12T00:56:48;11;11;
80413;PMS5003;69758;52.580;13.068;2023-08-12T00:59:13;12;12;
80413;PMS5003;69758;52.580;13.068;2023-08-12T01:01:39;12;11;
80413;PMS5003;69758;52.580;13.068;2023-08-12T01:04:04;10;10;
80413;PMS5003;69758;52.580;13.068;2023-08-12T01:06:29;10;10;
80413;PMS5003;69758;52.580;13.068;2023-08-12T01:08:54;12;12;
80413;PMS5003;69758;52.580;13.068;2023-08-12T01:11:21;10;9;
80413;PMS5003;69758;52.580;13.068;2023-08-12T01:13:46;10;10;
80413;PMS5003;69758;52.580;13.068;2023-08-12T01:16:09;10;10;
80413;PMS5003;69758;52.580;13.068;2023-08-12T01:18:34;11;11;
80413;PMS5003;69758;52.580;13.068;2023-08-12T01:21:00;11;11;
80413;PMS5003;69758;52.580;13.068;2023-08-12T01:23:30;12;12;
80413;PMS5003;69758;52.580;13.068;2023-08-12T01:25:50;11;11;
80413;PMS5003;69758;52.580;13.068;2023-08-12T01:28:15;10;10;
80413;PMS5003;69758;52.580;13.068;2023-08-12T01:30:43;11;11;
80413;PMS5003;69758;52.580;13.068;2023-08-12T01:33:07;14;12;
80413;PMS5003;69758;52.580;13.068;2023-08-12T01:35:32;11;10;
80413;PMS5003;69758;52.580;13.068;2023-08-12T01:37:57;10;10;
80413;PMS5003;69758;52.580;13.068;2023-08-12T01:40:21;12;11;
80413;PMS5003;69758;52.580;13.068;2023-08-12T01:42:46;11;11;
80413;PMS5003;69758;52.580;13.068;2023-08-12T01:45:11;11;11;
80413;PMS5003;69758;52.580;13.068;2023-08-12T01:47:37;10;10;
80413;PMS5003;69758;52.580;13.068;2023-08-12T01:50:02;12;12;
80413;PMS5003;69758;52.580;13.068;2023-08-12T01:52:27;11;11;
80413;PMS5003;69758;52.580;13.068;2023-08-12T01:54:52;9;9;
80413;PMS5003;69758;52.580;13.068;2023-08-12T01:57:17;13;12;
80413;PMS5003;69758;52.580;13.068;2023-08-12T01:59:42;12;12;
80413;PMS5003;69758;52.580;13.068;2023-08-12T02:02:07;11;11;
80413;PMS5003;69758;52.580;13.068;2023-08-12T02:04:33;10;9;
80413;PMS5003;69758;52.580;13.068;2023-08-12T02:06:58;10;9;
80413;PMS5003;69758;52.580;13.068;2023-08-12T02:09:23;8;8;
80413;PMS5003;69758;52.580;13.068;2023-08-12T02:11:48;12;12;
80413;PMS5003;69758;52.580;13.068;2023-08-12T02:14:13;12;11;
80413;PMS5003;69758;52.580;13.068;2023-08-12T02:16:38;13;12;
80413;PMS5003;69758;52.580;13.068;2023-08-12T02:19:04;12;12;
80413;PMS5003;69758;52.580;13.068;2023-08-12T02:21:30;11;11;
80413;PMS5003;69758;52.580;13.068;2023-08-12T02:23:54;10;9;
80413;PMS5003;69758;52.580;13.068;2023-08-12T02:26:20;9;9;
80413;PMS5003;69758;52.580;13.068;2023-08-12T02:28:45;10;10;
80413;PMS5003;69758;52.580;13.068;2023-08-12T02:31:10;9;9;
80413;PMS5003;69758;52.580;13.068;2023-08-12T02:33:35;10;10;
80413;PMS5003;69758;52.580;13.068;2023-08-12T02:36:00;11;10;
80413;PMS5003;69758;52.580;13.068;2023-08-12T02:38:25;12;12;
80413;PMS5003;69758;52.580;13.068;2023-08-12T02:40:50;10;10;
80413;PMS5003;69758;52.580;13.068;2023-08-12T02:43:15;11;11;
80413;PMS5003;69758;52.580;13.068;2023-08-12T02:45:40;12;12;
80413;PMS5003;69758;52.580;13.068;2023-08-12T02:48:06;12;12;
80413;PMS5003;69758;52.580;13.068;2023-08-12T02:50:31;10;10;
80413;PMS5003;69758;52.580;13.068;2023-08-12T02:52:56;11;11;
80413;PMS5003;69758;52.580;13.068;2023-08-12T02:55:21;13;12;
80413;PMS5003;69758;52.580;13.068;2023-08-12T02:57:47;11;10;
80413;PMS5003;69758;52.580;13.068;2023-08-12T03:00:12;10;9;
80413;PMS5003;69758;52.580;13.068;2023-08-12T03:02:37;11;11;
80413;PMS5003;69758;52.580;13.068;2023-08-12T03:05:02;13;13;
80413;PMS5003;69758;52.580;13.068;2023-08-12T03:07:27;11;10;
80413;PMS5003;69758;52.580;13.068;2023-08-12T03:09:52;11;10;
80413;PMS5003;69758;52.580;13.068;2023-08-12T03:12:17;11;11;
80413;PMS5003;69758;52.580;13.068;2023-08-12T03:14:42;13;13;
80413;PMS5003;69758;52.580;13.068;2023-08-12T03:17:07;10;10;
80413;PMS5003;69758;52.580;13.068;2023-08-12T03:19:33;11;10;
80413;PMS5003;69758;52.580;13.068;2023-08-12T03:21:58;10;10;
80413;PMS5003;69758;52.580;13.068;2023-08-12T03:24:28;12;12;
80413;PMS5003;69758;52.580;13.068;2023-08-12T03:26:49;9;9;
80413;PMS5003;69758;52.580;13.068;2023-08-12T03:29:14;9;9;
80413;PMS5003;69758;52.580;13.068;2023-08-12T03:31:39;11;11;
80413;PMS5003;69758;52.580;13.068;2023-08-12T03:34:04;11;11;
80413;PMS5003;69758;52.580;13.068;2023-08-12T03:36:29;11;11;
80413;PMS5003;69758;52.580;13.068;2023-08-12T03:38:54;11;11;
80413;PMS5003;69758;52.580;13.068;2023-08-12T03:41:19;13;12;
80413;PMS5003;69758;52.580;13.068;2023-08-12T03:43:44;11;11;
80413;PMS5003;69758;52.580;13.068;2023-08-12T03:46:10;11;11;
80413;PMS5003;69758;52.580;13.068;2023-08-12T03:48:35;11;11;
80413;PMS5003;69758;52.580;13.068;2023-08-12T03:51:01;9;9;
80413;PMS5003;69758;52.580;13.068;2023-08-12T03:53:26;10;8;
80413;PMS5003;69758;52.580;13.068;2023-08-12T03:55:51;10;10;
80413;PMS5003;69758;52.580;13.068;2023-08-12T03:58:16;12;12;
80413;PMS5003;69758;52.580;13.068;2023-08-12T04:00:41;11;11;
80413;PMS5003;69758;52.580;13.068;2023-08-12T04:03:06;13;13;
80413;PMS5003;69758;52.580;13.068;2023-08-12T04:05:31;12;12;
80413;PMS5003;69758;52.580;13.068;2023-08-12T04:07:57;11;11;
80413;PMS5003;69758;52.580;13.068;2023-08-12T04:10:22;12;12;
80413;PMS5003;69758;52.580;13.068;2023-08-12T04:12:52;11;11;
80413;PMS5003;69758;52.580;13.068;2023-08-12T04:15:12;11;11;
80413;PMS5003;69758;52.580;13.068;2023-08-12T04:17:37;13;13;
80413;PMS5003;69758;52.580;13.068;2023-08-12T04:20:03;11;11;
80413;PMS5003;69758;52.580;13.068;2023-08-12T04:22:30;12;12;
80413;PMS5003;69758;52.580;13.068;2023-08-12T04:24:53;10;10;
80413;PMS5003;69758;52.580;13.068;2023-08-12T04:27:18;13;12;
80413;PMS5003;69758;52.580;13.068;2023-08-12T04:29:43;12;12;
80413;PMS5003;69758;52.580;13.068;2023-08-12T04:32:08;13;12;
80413;PMS5003;69758;52.580;13.068;2023-08-12T04:34:33;11;11;
80413;PMS5003;69758;52.580;13.068;2023-08-12T04:36:58;15;14;
80413;PMS5003;69758;52.580;13.068;2023-08-12T04:39:23;13;13;
80413;PMS5003;69758;52.580;13.068;2023-08-12T04:41:48;13;12;
80413;PMS5003;69758;52.580;13.068;2023-08-12T04:44:14;13;13;
80413;PMS5003;69758;52.580;13.068;2023-08-12T04:46:39;13;12;
80413;PMS5003;69758;52.580;13.068;2023-08-12T04:49:04;12;12;
80413;PMS5003;69758;52.580;13.068;2023-08-12T04:51:30;11;11;
80413;PMS5003;69758;52.580;13.068;2023-08-12T04:53:54;14;14;
80413;PMS5003;69758;52.580;13.068;2023-08-12T04:56:20;11;11;
80413;PMS5003;69758;52.580;13.068;2023-08-12T04:58:45;12;12;
80413;PMS5003;69758;52.580;13.068;2023-08-12T05:01:10;15;15;
80413;PMS5003;69758;52.580;13.068;2023-08-12T05:03:35;15;15;
80413;PMS5003;69758;52.580;13.068;2023-08-12T05:06:00;14;14;
80413;PMS5003;69758;52.580;13.068;2023-08-12T05:08:25;16;16;
80413;PMS5003;69758;52.580;13.068;2023-08-12T05:10:50;14;14;
80413;PMS5003;69758;52.580;13.068;2023-08-12T05:13:15;13;12;
80413;PMS5003;69758;52.580;13.068;2023-08-12T05:15:40;12;11;
80413;PMS5003;69758;52.580;13.068;2023-08-12T05:18:06;13;13;
80413;PMS5003;69758;52.580;13.068;2023-08-12T05:20:31;14;14;
80413;PMS5003;69758;52.580;13.068;2023-08-12T05:22:56;13;13;
80413;PMS5003;69758;52.580;13.068;2023-08-12T05:25:21;10;10;
80413;PMS5003;69758;52.580;13.068;2023-08-12T05:27:46;11;11;
80413;PMS5003;69758;52.580;13.068;2023-08-12T05:30:11;15;13;
80413;PMS5003;69758;52.580;13.068;2023-08-12T05:32:36;12;12;
80413;PMS5003;69758;52.580;13.068;2023-08-12T05:35:01;13;13;
80413;PMS5003;69758;52.580;13.068;2023-08-12T05:37:26;12;12;
80413;PMS5003;69758;52.580;13.068;2023-08-12T05:39:51;13;12;
80413;PMS5003;69758;52.580;13.068;2023-08-12T05:42:16;13;12;
80413;PMS5003;69758;52.580;13.068;2023-08-12T05:44:41;12;12;
80413;PMS5003;69758;52.580;13.068;2023-08-12T05:47:07;14;14;
80413;PMS5003;69758;52.580;13.068;2023-08-12T05:49:32;13;13;
80413;PMS5003;69758;52.580;13.068;2023-08-12T05:51:57;12;12;
80413;PMS5003;69758;52.580;13.068;2023-08-12T05:54:23;13;13;
80413;PMS5003;69758;52.580;13.068;2023-08-12T05:56:48;12;11;
80413;PMS5003;69758;52.580;13.068;2023-08-12T05:59:13;13;12;
80413;PMS5003;69758;52.580;13.068;2023-08-12T06:01:38;12;11;
80413;PMS5003;69758;52.580;13.068;2023-08-12T06:04:03;15;14;
80413;PMS5003;69758;52.580;13.068;2023-08-12T06:06:28;13;13;
80413;PMS5003;69758;52.580;13.068;2023-08-12T06:08:54;16;16;
80413;PMS5003;69758;52.580;13.068;2023-08-12T06:11:18;14;14;
80413;PMS5003;69758;52.580;13.068;2023-08-12T06:13:44;15;15;
80413;PMS5003;69758;52.580;13.068;2023-08-12T06:16:09;13;12;
80413;PMS5003;69758;52.580;13.068;2023-08-12T06:18:34;12;12;
80413;PMS5003;69758;52.580;13.068;2023-08-12T06:20:59;15;15;
80413;PMS5003;69758;52.580;13.068;2023-08-12T06:23:24;13;12;
80413;PMS5003;69758;52.580;13.068;2023-08-12T06:25:49;14;14;
80413;PMS5003;69758;52.580;13.068;2023-08-12T06:28:14;13;11;
80413;PMS5003;69758;52.580;13.068;2023-08-12T06:30:39;12;12;
80413;PMS5003;69758;52.580;13.068;2023-08-12T06:33:04;14;12;
80413;PMS5003;69758;52.580;13.068;2023-08-12T06:35:29;12;12;
80413;PMS5003;69758;52.580;13.068;2023-08-12T06:37:54;13;12;
80413;PMS5003;69758;52.580;13.068;2023-08-12T06:40:20;12;12;
80413;PMS5003;69758;52.580;13.068;2023-08-12T06:42:45;13;13;
80413;PMS5003;69758;52.580;13.068;2023-08-12T06:45:15;13;13;
80413;PMS5003;69758;52.580;13.068;2023-08-12T06:47:35;13;13;
80413;PMS5003;69758;52.580;13.068;2023-08-12T06:50:00;14;14;
80413;PMS5003;69758;52.580;13.068;2023-08-12T06:52:25;11;11;
80413;PMS5003;69758;52.580;13.068;2023-08-12T06:54:50;14;14;
80413;PMS5003;69758;52.580;13.068;2023-08-12T06:57:15;13;13;
80413;PMS5003;69758;52.580;13.068;2023-08-12T06:59:41;11;11;
80413;PMS5003;69758;52.580;13.068;2023-08-12T07:02:06;12;12;
80413;PMS5003;69758;52.580;13.068;2023-08-12T07:04:31;12;12;
80413;PMS5003;69758;52.580;13.068;2023-08-12T07:06:56;11;11;
80413;PMS5003;69758;52.580;13.068;2023-08-12T07:09:21;11;10;
80413;PMS5003;69758;52.580;13.068;2023-08-12T07:11:46;15;15;
80413;PMS5003;69758;52.580;13.068;2023-08-12T07:14:11;13;13;
80413;PMS5003;69758;52.580;13.068;2023-08-12T07:16:36;14;13;
80413;PMS5003;69758;52.580;13.068;2023-08-12T07:19:01;15;15;
80413;PMS5003;69758;52.580;13.068;2023-08-12T07:21:26;14;13;
80413;PMS5003;69758;52.580;13.068;2023-08-12T07:23:51;14;13;
80413;PMS5003;69758;52.580;13.068;2023-08-12T07:26:17;12;12;
80413;PMS5003;69758;52.580;13.068;2023-08-12T07:28:42;12;12;
80413;PMS5003;69758;52.580;13.068;2023-08-12T07:31:07;13;13;
80413;PMS5003;69758;52.580;13.068;2023-08-12T07:33:32;12;12;
80413;PMS5003;69758;52.580;13.068;2023-08-12T07:35:57;13;13;
80413;PMS5003;69758;52.580;13.068;2023-08-12T07:38:23;11;11;
80413;PMS5003;69758;52.580;13.068;2023-08-12T07:40:48;13;12;
80413;PMS5003;69758;52.580;13.068;2023-08-12T07:43:14;16;15;
80413;PMS5003;69758;52.580;13.068;2023-08-12T07:45:38;13;13;
80413;PMS5003;69758;52.580;13.068;2023-08-12T07:48:04;13;12;
80413;PMS5003;69758;52.580;13.068;2023-08-12T07:50:29;11;11;
80413;PMS5003;69758;52.580;13.068;2023-08-12T07:52:54;11;11;
80413;PMS5003;69758;52.580;13.068;2023-08-12T07:55:19;14;13;
80413;PMS5003;69758;52.580;13.068;2023-08-12T07:57:44;11;11;
80413;PMS5003;69758;52.580;13.068;2023-08-12T08:00:09;9;9;
80413;PMS5003;69758;52.580;13.068;2023-08-12T08:02:34;11;11;
80413;PMS5003;69758;52.580;13.068;2023-08-12T08:04:59;12;12;
80413;PMS5003;69758;52.580;13.068;2023-08-12T08:07:24;11;11;
80413;PMS5003;69758;52.580;13.068;2023-08-12T08:09:50;11;10;
80413;PMS5003;69758;52.580;13.068;2023-08-12T08:12:15;12;12;
80413;PMS5003;69758;52.580;13.068;2023-08-12T08:14:39;11;11;
80413;PMS5003;69758;52.580;13.068;2023-08-12T08:17:05;13;13;
80413;PMS5003;69758;52.580;13.068;2023-08-12T08:19:30;13;13;
80413;PMS5003;69758;52.580;13.068;2023-08-12T08:21:56;16;16;
80413;PMS5003;69758;52.580;13.068;2023-08-12T08:24:21;14;13;
80413;PMS5003;69758;52.580;13.068;2023-08-12T08:26:46;10;10;
80413;PMS5003;69758;52.580;13.068;2023-08-12T08:29:11;14;12;
80413;PMS5003;69758;52.580;13.068;2023-08-12T08:31:37;15;14;
80413;PMS5003;69758;52.580;13.068;2023-08-12T08:34:02;11;11;
80413;PMS5003;69758;52.580;13.068;2023-08-12T08:36:27;13;11;
80413;PMS5003;69758;52.580;13.068;2023-08-12T08:38:52;14;14;
80413;PMS5003;69758;52.580;13.068;2023-08-12T08:41:17;11;11;
80413;PMS5003;69758;52.580;13.068;2023-08-12T08:43:42;14;13;
80413;PMS5003;69758;52.580;13.068;2023-08-12T08:46:07;16;16;
80413;PMS5003;69758;52.580;13.068;2023-08-12T08:48:32;13;13;
80413;PMS5003;69758;52.580;13.068;2023-08-12T08:50:57;16;16;
80413;PMS5003;69758;52.580;13.068;2023-08-12T08:53:23;14;14;
80413;PMS5003;69758;52.580;13.068;2023-08-12T08:55:48;16;16;
80413;PMS5003;69758;52.580;13.068;2023-08-12T08:58:13;13;13;
80413;PMS5003;69758;52.580;13.068;2023-08-12T09:00:38;14;14;
80413;PMS5003;69758;52.580;13.068;2023-08-12T09:03:03;14;14;
80413;PMS5003;69758;52.580;13.068;2023-08-12T09:05:28;14;14;
80413;PMS5003;69758;52.580;13.068;2023-08-12T09:07:53;13;13;
80413;PMS5003;69758;52.580;13.068;2023-08-12T09:10:19;17;17;
80413;PMS5003;69758;52.580;13.068;2023-08-12T09:12:43;16;15;
80413;PMS5003;69758;52.580;13.068;2023-08-12T09:15:09;14;14;
80413;PMS5003;69758;52.580;13.068;2023-08-12T09:17:34;19;19;
80413;PMS5003;69758;52.580;13.068;2023-08-12T09:19:59;17;17;
80413;PMS5003;69758;52.580;13.068;2023-08-12T09:22:24;14;14;
80413;PMS5003;69758;52.580;13.068;2023-08-12T09:24:49;15;15;
80413;PMS5003;69758;52.580;13.068;2023-08-12T09:27:16;18;18;
80413;PMS5003;69758;52.580;13.068;2023-08-12T09:29:40;15;14;
80413;PMS5003;69758;52.580;13.068;2023-08-12T09:32:05;19;19;
80413;PMS5003;69758;52.580;13.068;2023-08-12T09:34:30;15;14;
80413;PMS5003;69758;52.580;13.068;2023-08-12T09:36:55;16;16;
80413;PMS5003;69758;52.580;13.068;2023-08-12T09:39:20;18;18;
80413;PMS5003;69758;52.580;13.068;2023-08-12T09:41:45;15;15;
80413;PMS5003;69758;52.580;13.068;2023-08-12T09:44:11;15;15;
80413;PMS5003;69758;52.580;13.068;2023-08-12T09:46:36;16;16;
80413;PMS5003;69758;52.580;13.068;2023-08-12T09:49:01;15;15;
80413;PMS5003;69758;52.580;13.068;2023-08-12T09:51:26;18;18;
80413;PMS5003;69758;52.580;13.068;2023-08-12T09:53:51;15;15;
80413;PMS5003;69758;52.580;13.068;2023-08-12T09:56:17;17;17;
80413;PMS5003;69758;52.580;13.068;2023-08-12T09:58:42;13;12;
80413;PMS5003;69758;52.580;13.068;2023-08-12T10:01:07;16;16;
80413;PMS5003;69758;52.580;13.068;2023-08-12T10:03:33;16;16;
80413;PMS5003;69758;52.580;13.068;2023-08-12T10:05:58;18;17;
80413;PMS5003;69758;52.580;13.068;2023-08-12T10:08:23;20;20;
80413;PMS5003;69758;52.580;13.068;2023-08-12T10:10:49;17;15;
80413;PMS5003;69758;52.580;13.068;2023-08-12T10:13:15;20;20;
80413;PMS5003;69758;52.580;13.068;2023-08-12T10:15:40;18;18;
80413;PMS5003;69758;52.580;13.068;2023-08-12T10:18:14;15;15;
80413;PMS5003;69758;52.580;13.068;2023-08-12T10:20:32;20;20;
80413;PMS5003;69758;52.580;13.068;2023-08-12T10:22:57;17;16;
80413;PMS5003;69758;52.580;13.068;2023-08-12T10:25:23;18;18;
80413;PMS5003;69758;52.580;13.068;2023-08-12T10:27:49;17;17;
80413;PMS5003;69758;52.580;13.068;2023-08-12T10:30:14;17;17;
80413;PMS5003;69758;52.580;13.068;2023-08-12T10:32:39;16;16;
80413;PMS5003;69758;52.580;13.068;2023-08-12T10:35:06;17;17;
80413;PMS5003;69758;52.580;13.068;2023-08-12T10:37:32;16;16;
80413;PMS5003;69758;52.580;13.068;2023-08-12T10:39:57;16;15;
80413;PMS5003;69758;52.580;13.068;2023-08-12T10:44:49;16;16;
80413;PMS5003;69758;52.580;13.068;2023-08-12T10:47:14;17;17;
80413;PMS5003;69758;52.580;13.068;2023-08-12T10:49:42;15;15;
80413;PMS5003;69758;52.580;13.068;2023-08-12T10:52:05;22;22;
80413;PMS5003;69758;52.580;13.068;2023-08-12T10:54:30;17;17;
80413;PMS5003;69758;52.580;13.068;2023-08-12T11:01:48;18;17;
80413;PMS5003;69758;52.580;13.068;2023-08-12T11:04:17;18;18;
80413;PMS5003;69758;52.580;13.068;2023-08-12T11:06:42;16;16;
80413;PMS5003;69758;52.580;13.068;2023-08-12T11:09:05;18;18;
80413;PMS5003;69758;52.580;13.068;2023-08-12T11:11:31;18;17;
80413;PMS5003;69758;52.580;13.068;2023-08-12T11:13:56;17;17;
80413;PMS5003;69758;52.580;13.068;2023-08-12T11:18:48;16;15;
80413;PMS5003;69758;52.580;13.068;2023-08-12T11:21:14;17;17;
80413;PMS5003;69758;52.580;13.068;2023-08-12T11:23:39;18;18;
80413;PMS5003;69758;52.580;13.068;2023-08-12T11:26:05;16;16;
80413;PMS5003;69758;52.580;13.068;2023-08-12T11:28:31;18;18;
80413;PMS5003;69758;52.580;13.068;2023-08-12T11:30:57;19;18;
80413;PMS5003;69758;52.580;13.068;2023-08-12T11:33:23;18;17;
80413;PMS5003;69758;52.580;13.068;2023-08-12T11:35:49;19;18;
80413;PMS5003;69758;52.580;13.068;2023-08-12T11:38:14;15;15;
80413;PMS5003;69758;52.580;13.068;2023-08-12T11:40:40;14;14;
80413;PMS5003;69758;52.580;13.068;2023-08-12T11:43:06;16;16;
80413;PMS5003;69758;52.580;13.068;2023-08-12T11:45:32;16;16;
80413;PMS5003;69758;52.580;13.068;2023-08-12T11:47:57;15;15;
80413;PMS5003;69758;52.580;13.068;2023-08-12T11:50:24;14;14;
80413;PMS5003;69758;52.580;13.068;2023-08-12T11:52:49;14;14;
80413;PMS5003;69758;52.580;13.068;2023-08-12T11:55:15;15;15;
80413;PMS5003;69758;52.580;13.068;2023-08-12T11:57:40;20;19;
80413;PMS5003;69758;52.580;13.068;2023-08-12T12:00:06;17;17;
80413;PMS5003;69758;52.580;13.068;2023-08-12T12:02:31;16;15;
80413;PMS5003;69758;52.580;13.068;2023-08-12T12:04:57;16;16;
80413;PMS5003;69758;52.580;13.068;2023-08-12T12:07:23;19;18;
80413;PMS5003;69758;52.580;13.068;2023-08-12T12:09:50;16;16;
80413;PMS5003;69758;52.580;13.068;2023-08-12T12:12:14;14;13;
80413;PMS5003;69758;52.580;13.068;2023-08-12T12:14:46;16;16;
80413;PMS5003;69758;52.580;13.068;2023-08-12T12:17:07;17;16;
80413;PMS5003;69758;52.580;13.068;2023-08-12T12:19:31;14;13;
80413;PMS5003;69758;52.580;13.068;2023-08-12T12:21:57;15;15;
80413;PMS5003;69758;52.580;13.068;2023-08-12T12:24:23;15;15;
80413;PMS5003;69758;52.580;13.068;2023-08-12T12:26:48;16;16;
80413;PMS5003;69758;52.580;13.068;2023-08-12T12:29:14;15;15;
80413;PMS5003;69758;52.580;13.068;2023-08-12T12:31:40;16;16;
80413;PMS5003;69758;52.580;13.068;2023-08-12T12:34:06;16;16;
80413;PMS5003;69758;52.580;13.068;2023-08-12T12:36:31;13;13;
80413;PMS5003;69758;52.580;13.068;2023-08-12T12:38:57;15;14;
80413;PMS5003;69758;52.580;13.068;2023-08-12T12:41:23;17;17;
80413;PMS5003;69758;52.580;13.068;2023-08-12T12:43:48;20;20;
80413;PMS5003;69758;52.580;13.068;2023-08-12T12:46:14;13;13;
80413;PMS5003;69758;52.580;13.068;2023-08-12T12:48:40;17;16;
80413;PMS5003;69758;52.580;13.068;2023-08-12T12:51:06;15;15;
80413;PMS5003;69758;52.580;13.068;2023-08-12T12:53:32;15;15;
80413;PMS5003;69758;52.580;13.068;2023-08-12T12:55:57;22;21;
80413;PMS5003;69758;52.580;13.068;2023-08-12T12:58:23;19;19;
80413;PMS5003;69758;52.580;13.068;2023-08-12T13:00:48;16;16;
80413;PMS5003;69758;52.580;13.068;2023-08-12T13:03:14;21;19;
80413;PMS5003;69758;52.580;13.068;2023-08-12T13:05:39;15;15;
80413;PMS5003;69758;52.580;13.068;2023-08-12T13:08:05;16;15;
80413;PMS5003;69758;52.580;13.068;2023-08-12T13:10:30;15;13;
80413;PMS5003;69758;52.580;13.068;2023-08-12T13:12:56;15;15;
80413;PMS5003;69758;52.580;13.068;2023-08-12T13:15:21;15;15;
80413;PMS5003;69758;52.580;13.068;2023-08-12T13:17:47;15;15;
80413;PMS5003;69758;52.580;13.068;2023-08-12T13:20:12;16;16;
80413;PMS5003;69758;52.580;13.068;2023-08-12T13:22:38;13;13;
80413;PMS5003;69758;52.580;13.068;2023-08-12T13:25:04;13;13;
80413;PMS5003;69758;52.580;13.068;2023-08-12T13:27:35;12;12;
80413;PMS5003;69758;52.580;13.068;2023-08-12T13:29:55;16;16;
80413;PMS5003;69758;52.580;13.068;2023-08-12T13:32:21;18;18;
80413;PMS5003;69758;52.580;13.068;2023-08-12T13:34:47;17;17;
80413;PMS5003;69758;52.580;13.068;2023-08-12T13:37:21;14;14;
80413;PMS5003;69758;52.580;13.068;2023-08-12T13:39:38;14;14;
80413;PMS5003;69758;52.580;13.068;2023-08-12T13:42:04;15;15;
80413;PMS5003;69758;52.580;13.068;2023-08-12T13:44:30;15;15;
80413;PMS5003;69758;52.580;13.068;2023-08-12T13:46:55;16;16;
80413;PMS5003;69758;52.580;13.068;2023-08-12T13:49:21;15;15;
80413;PMS5003;69758;52.580;13.068;2023-08-12T13:51:47;14;14;
80413;PMS5003;69758;52.580;13.068;2023-08-12T13:54:12;11;10;
80413;PMS5003;69758;52.580;13.068;2023-08-12T13:56:38;16;16;
80413;PMS5003;69758;52.580;13.068;2023-08-12T13:59:04;12;12;
80413;PMS5003;69758;52.580;13.068;2023-08-12T14:01:30;14;12;
80413;PMS5003;69758;52.580;13.068;2023-08-12T14:03:56;14;13;
80413;PMS5003;69758;52.580;13.068;2023-08-12T14:06:21;11;10;
80413;PMS5003;69758;52.580;13.068;2023-08-12T14:08:47;12;12;
80413;PMS5003;69758;52.580;13.068;2023-08-12T14:11:13;12;11;
80413;PMS5003;69758;52.580;13.068;2023-08-12T14:13:39;14;14;
80413;PMS5003;69758;52.580;13.068;2023-08-12T14:16:04;13;13;
80413;PMS5003;69758;52.580;13.068;2023-08-12T14:18:30;13;13;
80413;PMS5003;69758;52.580;13.068;2023-08-12T14:20:56;11;11;
80413;PMS5003;69758;52.580;13.068;2023-08-12T14:23:22;11;11;
80413;PMS5003;69758;52.580;13.068;2023-08-12T14:25:47;15;15;
80413;PMS5003;69758;52.580;13.068;2023-08-12T14:28:13;12;11;
80413;PMS5003;69758;52.580;13.068;2023-08-12T14:30:39;14;13;
80413;PMS5003;69758;52.580;13.068;2023-08-12T14:33:04;10;10;
80413;PMS5003;69758;52.580;13.068;2023-08-12T14:35:30;13;12;
80413;PMS5003;69758;52.580;13.068;2023-08-12T14:37:56;13;13;
80413;PMS5003;69758;52.580;13.068;2023-08-12T14:40:21;11;11;
80413;PMS5003;69758;52.580;13.068;2023-08-12T14:42:47;11;11;
80413;PMS5003;69758;52.580;13.068;2023-08-12T14:45:12;12;12;
80413;PMS5003;69758;52.580;13.068;2023-08-12T14:47:38;12;12;
80413;PMS5003;69758;52.580;13.068;2023-08-12T14:50:04;13;12;
80413;PMS5003;69758;52.580;13.068;2023-08-12T14:52:30;10;10;
80413;PMS5003;69758;52.580;13.068;2023-08-12T14:54:56;13;13;
80413;PMS5003;69758;52.580;13.068;2023-08-12T14:57:21;10;10;
80413;PMS5003;69758;52.580;13.068;2023-08-12T14:59:47;12;12;
80413;PMS5003;69758;52.580;13.068;2023-08-12T15:02:13;13;13;
80413;PMS5003;69758;52.580;13.068;2023-08-12T15:04:38;13;13;
80413;PMS5003;69758;52.580;13.068;2023-08-12T15:07:04;12;12;
80413;PMS5003;69758;52.580;13.068;2023-08-12T15:09:30;12;12;
80413;PMS5003;69758;52.580;13.068;2023-08-12T15:11:56;11;11;
80413;PMS5003;69758;52.580;13.068;2023-08-12T15:14:21;13;13;
80413;PMS5003;69758;52.580;13.068;2023-08-12T15:16:47;13;13;
80413;PMS5003;69758;52.580;13.068;2023-08-12T15:19:13;11;11;
80413;PMS5003;69758;52.580;13.068;2023-08-12T15:21:38;12;12;
80413;PMS5003;69758;52.580;13.068;2023-08-12T15:24:04;11;11;
80413;PMS5003;69758;52.580;13.068;2023-08-12T15:26:30;12;12;
80413;PMS5003;69758;52.580;13.068;2023-08-12T15:28:56;9;9;
80413;PMS5003;69758;52.580;13.068;2023-08-12T15:31:21;9;9;
80413;PMS5003;69758;52.580;13.068;2023-08-12T15:33:47;11;11;
80413;PMS5003;69758;52.580;13.068;2023-08-12T15:36:13;10;10;
80413;PMS5003;69758;52.580;13.068;2023-08-12T15:38:39;12;12;
80413;PMS5003;69758;52.580;13.068;2023-08-12T15:41:05;16;15;
80413;PMS5003;69758;52.580;13.068;2023-08-12T15:43:35;11;11;
80413;PMS5003;69758;52.580;13.068;2023-08-12T15:45:56;10;10;
80413;PMS5003;69758;52.580;13.068;2023-08-12T15:48:22;11;11;
80413;PMS5003;69758;52.580;13.068;2023-08-12T15:50:47;18;18;
80413;PMS5003;69758;52.580;13.068;2023-08-12T15:53:13;12;12;
80413;PMS5003;69758;52.580;13.068;2023-08-12T15:55:38;13;13;
80413;PMS5003;69758;52.580;13.068;2023-08-12T15:58:04;10;10;